Time;durP1;ratioP1;P1;durP2;ratioP2;P2;SDS_P1;SDS_P2;PMS_P1;PMS_P2;Temp;Humidity;BMP_temperature;BMP_pressure;BME280_temperature;BME280_humidity;BME280_pressure;Samples;Min_cycle;Max_cycle;Signal;HPM_P1;HPM_P2
2022/08/11 00:01:18;;;;;;;3.50;2.50;;;25.10;39.40;;;-142.21;34.73;112049.66;5053175;28;20237;-72
2022/08/11 00:03:54;;;;;;;3.37;1.90;;;25.00;39.60;;;-142.21;34.64;112049.66;5052515;28;20326;-72
2022/08/11 00:06:27;;;;;;;2.27;2.03;;;24.90;39.60;;;-142.21;34.77;112049.66;5053788;28;20649;-72
2022/08/11 00:08:56;;;;;;;6.13;2.10;;;24.80;39.60;;;-142.21;34.63;112049.66;5052166;28;20324;-72
2022/08/11 00:11:34;;;;;;;3.57;2.30;;;24.70;39.50;;;-142.21;34.68;112049.66;5054693;28;20264;-72
2022/08/11 00:14:03;;;;;;;3.70;2.40;;;24.70;39.70;;;-142.21;34.67;112049.66;5053764;28;20205;-71
2022/08/11 00:16:33;;;;;;;3.97;2.50;;;24.60;39.40;;;-142.21;35.02;112049.66;5054438;28;20233;-72
2022/08/11 00:19:04;;;;;;;2.10;1.80;;;24.50;39.70;;;-142.21;34.97;112049.66;5046299;28;20229;-72
2022/08/11 00:21:40;;;;;;;3.67;2.30;;;24.50;39.70;;;-142.21;35.02;112049.66;5053794;28;20194;-71
2022/08/11 00:24:09;;;;;;;2.70;1.80;;;24.40;39.80;;;-142.21;35.34;112049.66;5053202;28;20300;-72
2022/08/11 00:26:37;;;;;;;2.57;2.20;;;24.30;40.10;;;-142.21;35.38;112049.66;5047848;28;20285;-71
2022/08/11 00:29:10;;;;;;;1.97;1.77;;;24.30;40.10;;;-142.21;35.61;112049.66;5053568;28;20284;-72
2022/08/11 00:31:44;;;;;;;3.07;2.13;;;24.20;40.30;;;-142.21;35.54;112049.66;5052610;28;20704;-72
2022/08/11 00:34:15;;;;;;;2.40;2.20;;;24.10;40.20;;;-142.21;35.77;112049.66;5052526;28;20214;-72
2022/08/11 00:36:50;;;;;;;3.33;2.10;;;24.10;40.50;;;-142.21;35.84;112049.66;5052291;28;20311;-72
2022/08/11 00:39:22;;;;;;;2.53;2.10;;;24.10;40.50;;;-142.21;35.97;112049.66;5053162;28;20243;-72
2022/08/11 00:42:15;;;;;;;3.17;2.07;;;24.00;40.60;;;-142.21;36.00;112049.66;5052931;28;20288;-71
2022/08/11 00:45:01;;;;;;;3.90;2.43;;;24.00;40.90;;;-142.21;36.08;112049.66;5050002;28;20241;-71
2022/08/11 00:47:54;;;;;;;2.77;2.30;;;23.90;41.50;;;-142.21;36.27;112049.66;5051957;28;20285;-72
2022/08/11 00:50:37;;;;;;;3.33;2.43;;;23.90;41.20;;;-142.21;36.15;112049.66;5051918;28;20198;-71
2022/08/11 00:53:30;;;;;;;3.53;2.57;;;23.80;41.10;;;-142.21;36.31;112049.66;5052602;28;20285;-72
2022/08/11 00:56:49;;;;;;;2.67;2.40;;;23.80;41.20;;;-142.21;36.44;112049.66;5039837;28;20244;-71
2022/08/11 00:59:49;;;;;;;4.67;2.73;;;23.80;41.70;;;-142.21;36.47;112049.66;5013208;28;20198;-71
2022/08/11 01:02:25;;;;;;;3.53;2.37;;;23.70;41.50;;;-142.21;36.53;112049.66;5052665;28;20209;-70
2022/08/11 01:05:49;;;;;;;3.20;2.17;;;23.60;41.40;;;-142.21;36.31;112049.66;5051199;28;20243;-72
2022/08/11 01:08:58;;;;;;;2.57;2.30;;;23.60;41.50;;;-142.21;36.68;112049.66;5050820;28;20208;-72
2022/08/11 01:12:24;;;;;;;2.40;2.10;;;23.60;41.70;;;-142.21;36.99;112049.66;5052944;28;20201;-72
2022/08/11 01:15:47;;;;;;;6.30;2.50;;;23.50;42.00;;;-142.21;36.96;112049.66;5010698;28;20290;-72
2022/08/11 01:19:12;;;;;;;3.90;2.50;;;23.50;42.10;;;-142.21;37.10;112049.66;5056230;28;20201;-71
2022/08/11 01:22:35;;;;;;;3.93;2.40;;;23.40;42.30;;;-142.21;37.27;112049.66;5040190;28;20291;-71
2022/08/11 01:26:10;;;;;;;2.30;2.10;;;23.40;42.50;;;-142.21;37.37;112049.66;5028706;28;20300;-72
2022/08/11 01:29:33;;;;;;;2.37;2.13;;;23.30;42.70;;;-142.21;37.48;112049.66;5052189;28;20224;-72
2022/08/11 01:32:56;;;;;;;2.40;2.20;;;23.20;42.60;;;-142.21;37.38;112049.66;5038676;28;20208;-72
2022/08/11 01:36:13;;;;;;;2.40;2.13;;;23.10;42.60;;;-142.21;37.44;112049.66;5039258;28;20225;-71
2022/08/11 01:39:47;;;;;;;2.40;2.20;;;23.10;42.50;;;-142.21;37.42;112049.66;5031442;28;20202;-72
2022/08/11 01:46:16;;;;;;;2.30;2.10;;;23.00;42.80;;;-142.21;37.40;112049.66;5031324;28;20259;-71
2022/08/11 01:48:55;;;;;;;3.20;2.40;;;23.00;42.60;;;-142.21;37.69;112049.66;5052175;28;20206;-71
2022/08/11 01:52:01;;;;;;;2.20;2.00;;;22.90;42.70;;;-142.21;37.90;112049.66;5051573;28;20297;-72
2022/08/11 01:54:40;;;;;;;4.00;2.10;;;23.00;43.00;;;-142.21;37.89;112049.66;5052209;28;20228;-72
2022/08/11 01:57:26;;;;;;;4.37;2.17;;;22.90;42.80;;;-142.21;38.11;112049.66;5051749;28;20198;-72
2022/08/11 02:00:08;;;;;;;3.27;2.33;;;22.90;43.10;;;-142.21;38.06;112049.66;5050038;28;20294;-72
2022/08/11 02:02:52;;;;;;;2.23;2.00;;;22.80;43.00;;;-142.21;38.19;112049.66;5051493;28;20716;-72
2022/08/11 02:05:59;;;;;;;3.30;2.07;;;22.70;43.10;;;-142.21;38.25;112049.66;5051437;28;20239;-71
2022/08/11 02:08:45;;;;;;;2.47;2.27;;;22.70;43.50;;;-142.21;38.55;112049.66;5033443;28;20285;-71
2022/08/11 02:11:32;;;;;;;2.83;2.30;;;22.70;43.50;;;-142.21;38.61;112049.66;5047882;28;20281;-71
2022/08/11 02:14:14;;;;;;;3.50;2.17;;;22.60;43.60;;;-142.21;38.78;112049.66;5047285;28;20210;-72
2022/08/11 02:17:07;;;;;;;2.40;2.20;;;22.60;43.70;;;-142.21;38.95;112049.66;5051593;28;20197;-71
2022/08/11 02:25:45;;;;;;;2.40;2.20;;;22.40;44.20;;;-142.21;39.49;112049.66;5053686;28;20221;-73
2022/08/11 02:28:27;;;;;;;3.10;2.10;;;22.40;44.40;;;-142.21;39.44;112049.66;5067781;28;20603;-72
2022/08/11 02:34:05;;;;;;;2.10;1.90;;;22.30;44.20;;;-142.21;39.39;112049.66;5052952;28;20271;-72
2022/08/11 02:36:47;;;;;;;2.30;2.10;;;22.20;44.10;;;-142.21;39.53;112049.66;5053676;28;20204;-72
2022/08/11 02:39:20;;;;;;;2.60;2.10;;;22.20;44.20;;;-142.21;39.76;112049.66;5060683;28;20194;-72
2022/08/11 02:44:55;;;;;;;2.50;2.30;;;22.20;44.60;;;-142.21;40.03;112049.66;5057191;28;20279;-73
2022/08/11 02:49:52;;;;;;;2.53;2.33;;;22.20;44.90;;;-142.21;40.01;112049.66;5020275;28;20292;-72
2022/08/11 02:50:41;;;;;;;2.50;2.10;;;22.10;44.90;;;-142.21;40.06;112049.66;5051604;28;20224;-72
2022/08/11 02:53:20;;;;;;;2.50;2.07;;;22.10;44.80;;;-142.21;40.16;112049.66;5052581;28;20194;-72
2022/08/11 02:56:02;;;;;;;2.47;2.10;;;22.10;44.90;;;-142.21;40.06;112049.66;5051962;28;20229;-72
2022/08/11 03:01:49;;;;;;;2.93;2.13;;;22.10;45.20;;;-142.21;40.16;112049.66;5055502;28;20266;-72
2022/08/11 03:04:30;;;;;;;3.67;2.23;;;22.10;45.10;;;-142.21;40.14;112049.66;5054637;28;20319;-73
2022/08/11 03:07:10;;;;;;;2.40;1.87;;;22.10;44.80;;;-142.21;40.17;112049.66;5055706;28;20291;-72
2022/08/11 03:09:54;;;;;;;3.20;2.23;;;22.10;45.10;;;-142.21;40.10;112049.66;5056579;28;20196;-72
2022/08/11 03:18:43;;;;;;;3.17;2.33;;;22.10;45.30;;;-142.21;40.61;112049.66;5031175;28;20213;-72
2022/08/11 03:21:21;;;;;;;3.00;2.27;;;22.10;45.30;;;-142.21;40.62;112049.66;5055867;28;20244;-72
2022/08/11 03:24:01;;;;;;;2.30;2.10;;;22.00;45.30;;;-142.21;40.81;112049.66;5055745;28;20277;-72
2022/08/11 03:26:37;;;;;;;2.70;2.50;;;22.00;45.30;;;-142.21;40.82;112049.66;5017325;28;20222;-72
2022/08/11 03:29:12;;;;;;;2.20;2.00;;;22.00;45.30;;;-142.21;40.80;112049.66;5035551;28;20206;-73
2022/08/11 03:31:56;;;;;;;2.60;2.00;;;22.00;45.30;;;-142.21;40.64;112049.66;5049834;28;20275;-72
2022/08/11 03:34:25;;;;;;;3.47;2.10;;;22.00;45.30;;;-142.21;40.68;112049.66;5055859;28;20252;-72
2022/08/11 03:41:41;;;;;;;2.30;2.10;;;21.90;45.80;;;-142.21;40.92;112049.66;5053947;28;20198;-72
2022/08/11 03:43:23;;;;;;;2.63;2.27;;;21.90;45.50;;;-142.21;41.12;112049.66;5034584;28;20202;-71
2022/08/11 03:46:04;;;;;;;2.83;2.37;;;21.90;45.50;;;-142.21;41.31;112049.66;5043858;28;20351;-72
2022/08/11 03:48:47;;;;;;;3.53;2.43;;;21.90;45.60;;;-142.21;41.43;112049.66;5055787;28;20225;-72
2022/08/11 03:51:24;;;;;;;2.90;2.30;;;21.90;45.80;;;-142.21;41.51;112049.66;5055308;28;20198;-72
2022/08/11 03:54:15;;;;;;;2.83;2.40;;;21.80;45.80;;;-142.21;41.62;112049.66;5055083;28;20190;-71
2022/08/11 03:57:42;;;;;;;2.50;2.30;;;21.80;46.00;;;-142.21;41.39;112049.66;5055002;28;20224;-72
2022/08/11 04:01:01;;;;;;;4.23;2.40;;;21.80;45.90;;;-142.21;41.69;112049.66;5053614;28;20598;-71
2022/08/11 04:04:03;;;;;;;4.03;2.20;;;21.70;46.20;;;-142.21;41.63;112049.66;5048749;28;20396;-72
2022/08/11 04:07:36;;;;;;;6.00;2.30;;;21.70;46.20;;;-142.21;42.04;112049.66;5054647;28;20241;-71
2022/08/11 04:10:45;;;;;;;3.97;2.47;;;21.70;46.30;;;-142.21;43.01;112049.66;4983297;28;20290;-73
2022/08/11 04:17:08;;;;;;;5.00;2.77;;;21.60;47.30;;;-142.21;43.46;112049.66;5054357;28;20233;-72
2022/08/11 04:20:29;;;;;;;3.97;2.70;;;21.60;47.20;;;-142.21;43.15;112049.66;5055157;28;20293;-72
2022/08/11 04:23:43;;;;;;;5.37;2.30;;;21.60;47.20;;;-142.21;43.79;112049.66;5051115;28;20709;-72
2022/08/11 04:26:57;;;;;;;2.93;2.20;;;21.60;47.10;;;-142.21;45.54;112049.66;5053660;28;20268;-72
2022/08/11 04:29:50;;;;;;;2.90;2.13;;;21.60;48.90;;;-142.21;44.54;112049.66;5054939;28;20213;-72
2022/08/11 04:32:46;;;;;;;3.70;2.30;;;21.50;47.90;;;-142.21;45.82;112049.66;5049988;28;20202;-72
2022/08/11 04:35:34;;;;;;;2.73;2.30;;;21.50;48.40;;;-142.21;45.70;112049.66;5054034;28;20225;-72
2022/08/11 04:38:39;;;;;;;3.07;2.50;;;21.50;48.40;;;-142.21;45.99;112049.66;5053843;28;20297;-73
2022/08/11 04:45:20;;;;;;;5.03;2.43;;;21.50;48.90;;;-142.21;46.21;112049.66;5044799;28;20213;-72
2022/08/11 05:02:49;;;;;;;4.13;3.00;;;21.50;49.00;;;-142.21;45.79;112049.66;5050334;28;20205;-71
2022/08/11 05:05:35;;;;;;;4.83;2.80;;;21.60;48.50;;;-142.21;46.25;112049.66;5035982;28;20308;-74
2022/08/11 05:08:48;;;;;;;4.17;2.70;;;21.70;48.50;;;-142.21;46.13;112049.66;5053459;28;20221;-72
2022/08/11 05:11:56;;;;;;;2.20;2.00;;;21.70;48.50;;;-142.21;45.98;112049.66;5052885;28;20229;-72
2022/08/11 05:34:55;;;;;;;3.43;2.37;;;22.20;47.00;;;-142.21;42.80;112049.66;5053630;28;20224;-72
2022/08/11 05:37:34;;;;;;;7.73;2.70;;;22.30;46.90;;;-142.21;42.77;112049.66;5052918;28;20232;-72
2022/08/11 05:57:20;;;;;;;2.77;2.23;;;22.90;46.90;;;-142.21;42.52;112049.66;5053885;28;20200;-72
2022/08/11 05:59:50;;;;;;;5.53;2.17;;;23.00;46.60;;;-142.21;41.87;112049.66;5053848;28;20194;-72
2022/08/11 06:02:21;;;;;;;2.67;2.47;;;23.00;46.40;;;-142.21;41.99;112049.66;5052479;28;20236;-72
2022/08/11 06:04:57;;;;;;;3.80;2.37;;;23.10;46.30;;;-142.21;41.94;112049.66;5053146;28;20741;-72
2022/08/11 06:07:30;;;;;;;3.50;2.33;;;23.20;46.40;;;-142.21;41.91;112049.66;5052277;28;20201;-72
2022/08/11 06:09:59;;;;;;;2.83;2.00;;;23.30;46.30;;;-142.21;41.55;112049.66;5053680;28;20638;-72
2022/08/11 06:12:30;;;;;;;2.60;2.13;;;23.30;45.90;;;-142.21;40.96;112049.66;5066026;28;20597;-72
2022/08/11 06:15:07;;;;;;;4.03;2.30;;;23.40;45.80;;;-142.21;40.77;112049.66;5068400;28;20218;-71
2022/08/11 06:17:45;;;;;;;2.30;2.10;;;23.50;45.60;;;-142.21;40.75;112049.66;5056205;28;20221;-72
2022/08/11 06:20:17;;;;;;;3.93;2.30;;;23.60;45.50;;;-142.21;40.98;112049.66;5051853;28;20193;-72
2022/08/11 06:22:48;;;;;;;2.10;1.90;;;23.70;45.70;;;-142.21;40.70;112049.66;5052013;28;20280;-71
2022/08/11 06:25:16;;;;;;;2.23;2.03;;;23.80;45.50;;;-142.21;40.72;112049.66;5052116;28;20210;-71
2022/08/11 06:27:47;;;;;;;2.63;2.43;;;23.80;45.40;;;-142.21;40.39;112049.66;5053693;28;20233;-73
2022/08/11 06:30:18;;;;;;;5.20;2.60;;;23.90;45.20;;;-142.21;40.64;112049.66;5051453;28;20197;-72
2022/08/11 06:32:47;;;;;;;3.57;2.23;;;24.00;45.50;;;-142.21;40.35;112049.66;5052386;28;20634;-73
2022/08/11 06:35:23;;;;;;;5.00;2.60;;;24.10;45.30;;;-142.21;40.05;112049.66;5050600;28;20197;-72
2022/08/11 06:38:07;;;;;;;3.70;2.70;;;24.10;45.10;;;-142.21;39.87;112049.66;5051540;28;20208;-72
2022/08/11 06:41:29;;;;;;;5.17;2.87;;;24.20;45.00;;;-142.21;39.17;112049.66;5052808;28;20642;-71
2022/08/11 06:43:53;;;;;;;4.03;2.90;;;24.30;44.50;;;-142.21;39.17;112049.66;5052307;28;20647;-72
2022/08/11 06:46:30;;;;;;;5.97;2.50;;;24.40;44.50;;;-142.21;38.96;112049.66;5052273;28;20221;-71
2022/08/11 06:49:02;;;;;;;2.83;2.33;;;24.50;44.20;;;-142.21;38.96;112049.66;5031378;28;20202;-72
2022/08/11 06:51:29;;;;;;;5.47;2.63;;;24.50;44.10;;;-142.21;39.19;112049.66;5031410;28;20595;-71
2022/08/11 06:54:01;;;;;;;2.53;2.23;;;24.70;44.30;;;-142.21;38.76;112049.66;5031670;28;20208;-70
2022/08/11 07:02:24;;;;;;;2.77;2.30;;;24.90;44.10;;;-142.21;38.70;112049.66;5031926;28;20193;-71
2022/08/11 07:05:00;;;;;;;3.23;2.30;;;25.00;43.90;;;-142.21;38.15;112049.66;5041581;28;20244;-72
2022/08/11 07:17:48;;;;;;;4.17;2.43;;;25.40;43.70;;;-142.21;38.41;112049.66;5032023;28;20185;-70
2022/08/11 07:28:56;;;;;;;2.50;2.30;;;25.70;42.70;;;-142.21;37.10;112049.66;5052127;28;20557;-71
2022/08/11 07:31:35;;;;;;;2.60;2.40;;;25.80;42.40;;;-142.21;37.56;112049.66;5052338;28;20228;-71
2022/08/11 07:34:17;;;;;;;4.23;2.33;;;26.00;42.80;;;-142.21;37.35;112049.66;5051434;28;20267;-71
2022/08/11 07:36:52;;;;;;;3.00;2.60;;;26.10;42.70;;;-142.21;37.06;112049.66;5051911;28;20291;-74
2022/08/11 07:39:24;;;;;;;2.83;2.37;;;26.10;42.30;;;-142.21;36.80;112049.66;5050704;28;20250;-73
2022/08/11 07:41:57;;;;;;;5.43;2.70;;;26.20;42.20;;;-142.21;36.88;112049.66;5052059;28;20197;-72
2022/08/11 07:44:28;;;;;;;2.83;2.40;;;26.30;42.10;;;-142.21;37.69;112049.66;5055258;28;20230;-71
2022/08/11 07:52:39;;;;;;;5.37;2.17;;;26.60;42.20;;;-142.21;37.31;112049.66;5053918;28;20209;-71
2022/08/11 07:55:13;;;;;;;2.23;1.90;;;26.70;42.30;;;-142.21;36.62;112049.66;5053419;28;20248;-71
2022/08/11 08:19:50;;;;;;;4.03;2.47;;;27.60;40.60;;;-142.21;34.91;112049.66;5037261;28;20233;-71
2022/08/11 08:22:25;;;;;;;3.00;2.30;;;27.70;40.10;;;-142.21;35.38;112049.66;5053308;28;20522;-72
2022/08/11 08:24:55;;;;;;;2.83;2.40;;;27.80;40.50;;;-142.21;35.00;112049.66;5055014;28;20192;-71
2022/08/11 08:27:24;;;;;;;3.07;2.77;;;27.90;40.40;;;-142.21;34.80;112049.66;5053143;28;20691;-72
2022/08/11 08:32:42;;;;;;;3.43;2.20;;;28.10;39.90;;;-142.21;35.25;112049.66;5052442;28;20257;-72
2022/08/11 08:35:12;;;;;;;5.00;2.60;;;28.20;40.10;;;-142.21;34.73;112049.66;5054524;28;20694;-72
2022/08/11 08:37:41;;;;;;;3.83;2.20;;;28.30;39.70;;;-142.21;34.19;112049.66;5054742;28;20201;-71
2022/08/11 08:40:13;;;;;;;2.57;2.37;;;28.30;39.10;;;-142.21;34.49;112049.66;5053417;28;20199;-74
2022/08/11 08:42:50;;;;;;;4.83;2.20;;;28.40;39.40;;;-142.21;34.49;112049.66;5046057;28;20229;-73
2022/08/11 08:45:19;;;;;;;4.23;2.37;;;28.60;39.60;;;-142.21;34.64;112049.66;5052269;28;20283;-72
2022/08/11 08:47:54;;;;;;;3.60;2.63;;;28.60;39.30;;;-142.21;34.73;112049.66;5054119;28;20207;-73
2022/08/11 08:51:32;;;;;;;9.77;3.23;;;28.80;39.40;;;-142.21;33.94;112049.66;5052577;28;20191;-73
2022/08/11 08:53:21;;;;;;;2.90;2.60;;;28.90;38.90;;;-142.21;33.91;112049.66;5053244;28;20605;-72
2022/08/11 08:55:50;;;;;;;3.87;2.10;;;28.90;38.70;;;-142.21;33.82;112049.66;5054019;28;20183;-73
2022/08/11 08:58:23;;;;;;;2.43;2.23;;;29.00;38.70;;;-142.21;33.55;112049.66;5053499;28;20245;-73
2022/08/11 09:00:56;;;;;;;4.03;2.27;;;29.10;38.20;;;-142.21;33.09;112049.66;5052998;28;20201;-73
2022/08/11 09:03:25;;;;;;;3.00;2.17;;;29.20;38.00;;;-142.21;34.09;112049.66;5042435;28;20688;-73
2022/08/11 09:06:01;;;;;;;3.40;2.33;;;29.30;38.60;;;-142.21;33.77;112049.66;5053028;28;20212;-71
2022/08/11 09:08:33;;;;;;;4.70;3.30;;;29.40;38.30;;;-142.21;33.55;112049.66;5053781;28;20212;-73
2022/08/11 09:13:49;;;;;;;2.50;2.20;;;29.60;37.70;;;-142.21;32.92;112049.66;5033551;28;20264;-73
2022/08/11 09:16:18;;;;;;;3.67;2.63;;;29.60;37.50;;;-142.21;33.08;112049.66;5049928;28;20598;-72
2022/08/11 09:19:02;;;;;;;2.80;2.40;;;29.70;37.60;;;-142.21;32.36;112049.66;5053692;28;20205;-71
2022/08/11 09:21:31;;;;;;;3.00;2.03;;;29.80;37.00;;;-142.21;33.01;112049.66;5051948;28;20212;-72
2022/08/11 09:26:59;;;;;;;3.33;2.33;;;30.00;37.10;;;-142.21;32.65;112049.66;5053740;28;20335;-73
2022/08/11 09:29:28;;;;;;;2.83;2.37;;;30.00;37.10;;;-142.21;32.59;112049.66;5051492;28;20874;-72
2022/08/11 09:31:58;;;;;;;3.23;2.30;;;30.20;37.20;;;-142.21;31.93;112049.66;5047962;28;20213;-73
2022/08/11 09:34:29;;;;;;;3.27;2.50;;;30.20;36.80;;;-142.21;31.60;112049.66;5050441;28;20411;-72
2022/08/11 09:45:18;;;;;;;3.03;2.17;;;30.60;36.60;;;-142.21;31.79;112049.66;4988745;28;20213;-75
2022/08/11 09:47:46;;;;;;;3.00;2.30;;;30.60;36.20;;;-142.21;31.44;112049.66;5039310;28;20210;-73
2022/08/11 09:50:17;;;;;;;2.57;2.37;;;30.80;36.00;;;-142.21;30.60;112049.66;5036120;28;20213;-73
2022/08/11 09:52:47;;;;;;;2.70;2.37;;;30.90;35.10;;;-142.21;30.59;112049.66;5033032;28;20659;-73
2022/08/11 09:55:20;;;;;;;5.57;2.63;;;31.00;34.90;;;-142.21;30.71;112049.66;5037570;28;20232;-75
2022/08/11 10:00:39;;;;;;;2.33;1.97;;;31.10;35.00;;;-142.21;31.29;112049.66;5053077;28;20192;-73
2022/08/11 10:03:12;;;;;;;3.43;2.40;;;31.30;35.40;;;-142.21;30.32;112049.66;5052100;28;20300;-74
2022/08/11 10:08:37;;;;;;;5.33;2.10;;;31.50;34.60;;;-142.21;30.76;112049.66;5046217;28;20201;-73
2022/08/11 10:11:09;;;;;;;6.17;2.50;;;31.70;35.10;;;-142.21;30.00;112049.66;5048874;28;20298;-73
2022/08/11 10:16:29;;;;;;;2.40;2.20;;;31.80;33.50;;;-142.21;29.02;112049.66;5037700;28;20599;-74
2022/08/11 10:19:01;;;;;;;2.20;2.00;;;31.80;32.90;;;-142.21;28.98;112049.66;5052393;28;20290;-73
2022/08/11 10:21:37;;;;;;;2.40;2.20;;;31.90;32.70;;;-142.21;29.43;112049.66;5045843;28;20206;-72
2022/08/11 10:26:59;;;;;;;4.23;2.10;;;32.00;33.00;;;-142.21;28.38;112049.66;5051811;28;20565;-74
2022/08/11 10:35:29;;;;;;;2.30;2.10;;;32.30;31.30;;;-142.21;28.59;112049.66;5048201;28;20757;-73
2022/08/11 10:37:58;;;;;;;2.10;1.90;;;32.20;31.40;;;-142.21;27.66;112049.66;5047982;28;20186;-74
2022/08/11 10:40:26;;;;;;;2.43;2.23;;;32.30;31.00;;;-142.21;26.98;112049.66;5036856;28;20199;-73
2022/08/11 10:43:05;;;;;;;4.80;2.10;;;32.40;30.30;;;-142.21;27.17;112049.66;5051603;28;20217;-74
2022/08/11 10:48:26;;;;;;;3.27;2.10;;;32.50;30.90;;;-142.21;27.44;112049.66;5036272;28;20246;-74
2022/08/11 10:51:12;;;;;;;2.93;2.10;;;32.60;30.50;;;-142.21;27.67;112049.66;5051993;28;20544;-73
2022/08/11 10:59:29;;;;;;;2.07;1.90;;;32.90;30.00;;;-142.21;26.68;112049.66;5019689;28;20205;-73
2022/08/11 11:02:00;;;;;;;2.73;1.80;;;33.00;29.60;;;-142.21;26.45;112049.66;5051845;28;20622;-74
2022/08/11 11:04:43;;;;;;;6.13;1.93;;;33.00;29.50;;;-142.21;27.11;112049.66;5050890;28;20375;-74
2022/08/11 11:07:23;;;;;;;3.60;1.90;;;33.20;30.00;;;-142.21;25.80;112049.66;5051352;28;20222;-74
2022/08/11 11:09:57;;;;;;;2.00;1.90;;;33.10;28.50;;;-142.21;26.79;112049.66;5051682;28;20626;-74
2022/08/11 11:18:08;;;;;;;3.40;2.00;;;33.40;28.90;;;-142.21;25.49;112049.66;5032879;28;20261;-75
2022/08/11 11:20:43;;;;;;;2.00;1.80;;;33.40;28.30;;;-142.21;25.31;112049.66;5056266;28;20197;-74
2022/08/11 11:23:18;;;;;;;3.93;2.10;;;33.40;28.00;;;-142.21;26.05;112049.66;5055441;28;20280;-74
2022/08/11 11:26:13;;;;;;;2.13;2.03;;;33.40;28.70;;;-142.21;25.65;112049.66;5055776;28;20193;-74
2022/08/11 11:29:15;;;;;;;1.60;1.50;;;33.40;28.30;;;-142.21;25.18;112049.66;5055728;28;20195;-74
2022/08/11 11:32:16;;;;;;;7.00;2.10;;;33.60;27.50;;;-142.21;24.60;112049.66;5053513;28;20286;-73
2022/08/11 11:35:10;;;;;;;1.77;1.63;;;33.60;27.20;;;-142.21;24.96;112049.66;5055748;28;20207;-73
2022/08/11 11:37:40;;;;;;;3.33;1.80;;;33.80;27.20;;;-142.21;25.13;112049.66;5055794;28;20192;-74
2022/08/11 11:40:12;;;;;;;1.70;1.60;;;33.80;27.80;;;-142.21;25.06;112049.66;5055306;28;20648;-74
2022/08/11 11:42:43;;;;;;;2.20;2.00;;;33.90;27.70;;;-142.21;24.39;112049.66;5055625;28;20277;-73
2022/08/11 11:45:15;;;;;;;2.10;1.90;;;33.80;27.10;;;-142.21;24.75;112049.66;5055284;28;20594;-75
2022/08/11 11:47:44;;;;;;;2.17;1.97;;;33.80;27.40;;;-142.21;25.29;112049.66;5055765;28;20215;-74
2022/08/11 11:50:13;;;;;;;1.93;1.73;;;33.90;27.80;;;-142.21;25.01;112049.66;5054940;28;20244;-74
2022/08/11 11:52:43;;;;;;;2.30;1.90;;;34.10;27.70;;;-142.21;24.33;112049.66;5055410;28;20270;-74
2022/08/11 11:55:11;;;;;;;2.03;1.73;;;34.10;27.20;;;-142.21;24.39;112049.66;5055416;28;20523;-74
2022/08/11 12:03:12;;;;;;;2.43;1.80;;;34.40;27.00;;;-142.21;24.80;112049.66;5035407;28;20267;-74
2022/08/11 12:05:43;;;;;;;1.80;1.70;;;34.40;27.10;;;-142.21;24.79;112049.66;5050429;28;20236;-74
2022/08/11 12:08:14;;;;;;;2.87;1.60;;;34.50;27.40;;;-142.21;24.57;112049.66;5050512;28;20221;-74
2022/08/11 12:10:48;;;;;;;2.20;2.00;;;34.70;27.10;;;-142.21;24.57;112049.66;5054364;28;20235;-74
2022/08/11 12:16:04;;;;;;;2.63;2.00;;;34.80;26.30;;;-142.21;23.54;112049.66;5053988;28;20753;-74
2022/08/11 12:18:35;;;;;;;2.77;1.80;;;34.80;25.80;;;-142.21;23.83;112049.66;5053897;28;20452;-75
2022/08/11 12:21:05;;;;;;;2.87;1.93;;;34.80;26.20;;;-142.21;23.70;112049.66;5043643;28;20202;-74
2022/08/11 12:29:10;;;;;;;2.00;1.80;;;34.90;25.90;;;-142.21;23.25;112049.66;5054152;28;20327;-74
2022/08/11 12:31:40;;;;;;;2.10;1.93;;;34.90;25.70;;;-142.21;23.67;112049.66;5054039;28;20670;-74
2022/08/11 12:34:11;;;;;;;2.63;1.80;;;35.00;25.90;;;-142.21;23.60;112049.66;5061277;28;20255;-73
2022/08/11 12:36:46;;;;;;;3.60;1.90;;;35.00;25.70;;;-142.21;22.98;112049.66;5051889;28;20193;-75
2022/08/11 12:45:26;;;;;;;1.77;1.67;;;35.00;25.50;;;-142.21;23.40;112049.66;5034908;28;20190;-73
2022/08/11 12:53:28;;;;;;;2.07;1.97;;;34.90;25.50;;;-142.21;22.94;112049.66;5033601;28;20189;-73
2022/08/11 12:58:51;;;;;;;2.80;1.60;;;35.10;25.60;;;-142.21;22.27;112049.66;5051135;28;20707;-73
2022/08/11 13:06:53;;;;;;;1.90;1.80;;;35.10;24.90;;;-142.21;23.10;112049.66;5054042;28;20216;-72
2022/08/11 13:09:22;;;;;;;2.23;1.80;;;35.10;24.90;;;-142.21;22.84;112049.66;5053215;28;20229;-71
2022/08/11 13:14:36;;;;;;;1.97;1.73;;;35.20;25.00;;;-142.21;23.19;112049.66;5053458;28;20246;-71
2022/08/11 13:17:23;;;;;;;3.17;1.87;;;35.30;25.30;;;-142.21;23.59;112049.66;5053982;28;20301;-72
2022/08/11 13:19:52;;;;;;;7.03;1.77;;;35.50;25.50;;;-142.21;23.15;112049.66;5053492;28;20202;-71
2022/08/11 13:22:23;;;;;;;2.00;1.70;;;35.60;25.30;;;-142.21;23.38;112049.66;5052765;28;20212;-73
2022/08/11 13:24:55;;;;;;;2.10;1.90;;;35.70;25.30;;;-142.21;22.58;112049.66;5053836;28;20243;-73
2022/08/11 13:27:24;;;;;;;2.40;2.17;;;35.80;24.60;;;-142.21;22.88;112049.66;5053247;28;20243;-71
2022/08/11 13:31:09;;;;;;;1.63;1.53;;;35.80;25.10;;;-142.21;23.34;112049.66;5053459;28;20263;-71
2022/08/11 13:32:44;;;;;;;4.93;2.20;;;36.00;25.10;;;-142.21;23.07;112049.66;5053166;28;20212;-71
2022/08/11 13:35:15;;;;;;;1.90;1.67;;;36.00;25.10;;;-142.21;23.32;112049.66;5053024;28;20196;-72
2022/08/11 13:37:47;;;;;;;2.00;1.80;;;36.00;25.00;;;-142.21;23.05;112049.66;5052587;28;20247;-72
2022/08/11 13:40:17;;;;;;;2.80;2.20;;;36.10;25.00;;;-142.21;22.88;112049.66;5052592;28;20245;-72
2022/08/11 13:42:47;;;;;;;2.63;1.77;;;36.00;24.80;;;-142.21;23.44;112049.66;5053368;28;20226;-73
2022/08/11 13:45:14;;;;;;;2.27;2.07;;;36.10;25.20;;;-142.21;22.73;112049.66;5053400;28;20335;-71
2022/08/11 13:47:45;;;;;;;2.17;1.97;;;36.20;24.90;;;-142.21;22.88;112049.66;5052947;28;20229;-72
2022/08/11 13:50:15;;;;;;;2.73;1.83;;;36.20;24.70;;;-142.21;22.21;112049.66;5052538;28;20579;-71
2022/08/11 13:52:47;;;;;;;1.77;1.53;;;36.20;24.40;;;-142.21;22.84;112049.66;5052493;28;20247;-71
2022/08/11 13:55:20;;;;;;;2.93;1.90;;;36.20;24.70;;;-142.21;22.43;112049.66;5052888;28;20190;-73
2022/08/11 13:57:52;;;;;;;2.33;1.77;;;36.20;24.30;;;-142.21;21.95;112049.66;5051144;28;20206;-71
2022/08/11 14:00:21;;;;;;;2.43;2.00;;;36.20;24.00;;;-142.21;22.02;112049.66;5052989;28;20619;-71
2022/08/11 14:02:52;;;;;;;2.20;2.00;;;36.30;23.90;;;-142.21;22.87;112049.66;5053404;28;20543;-72
2022/08/11 14:05:37;;;;;;;1.80;1.57;;;36.30;24.30;;;-142.21;22.65;112049.66;5051826;28;20242;-72
2022/08/11 14:08:13;;;;;;;2.43;1.87;;;36.30;24.20;;;-142.21;22.36;112049.66;5052870;28;20217;-71
2022/08/11 14:10:41;;;;;;;1.90;1.80;;;36.40;24.10;;;-142.21;22.17;112049.66;5034365;28;20219;-72
2022/08/11 14:16:06;;;;;;;2.13;1.93;;;36.50;24.20;;;-142.21;22.29;112049.66;5052886;28;20201;-73
2022/08/11 14:18:35;;;;;;;1.70;1.60;;;36.50;24.10;;;-142.21;22.49;112049.66;5050230;28;20194;-73
2022/08/11 14:23:58;;;;;;;3.77;2.03;;;36.60;24.10;;;-142.21;22.31;112049.66;5052662;28;20235;-72
2022/08/11 14:26:27;;;;;;;3.70;1.80;;;36.50;24.10;;;-142.21;22.21;112049.66;5052012;28;20698;-73
2022/08/11 14:29:00;;;;;;;1.80;1.70;;;36.60;24.10;;;-142.21;22.03;112049.66;5052660;28;20279;-71
2022/08/11 14:31:31;;;;;;;2.97;1.70;;;36.50;23.60;;;-142.21;22.47;112049.66;5033271;28;20229;-73
2022/08/11 14:34:04;;;;;;;5.50;2.00;;;36.60;24.10;;;-142.21;22.40;112049.66;5052080;28;20649;-71
2022/08/11 14:36:35;;;;;;;3.20;1.90;;;36.50;24.10;;;-142.21;22.59;112049.66;5051658;28;20200;-71
2022/08/11 14:39:11;;;;;;;2.00;1.80;;;36.50;24.10;;;-142.21;22.25;112049.66;5016303;28;20261;-72
2022/08/11 14:47:14;;;;;;;2.93;1.93;;;36.50;23.90;;;-142.21;22.42;112049.66;5052117;28;20235;-71
2022/08/11 14:49:43;;;;;;;1.80;1.70;;;36.50;24.00;;;-142.21;22.04;112049.66;5052063;28;20214;-72